Terminal Aerodrome Forecast
Issued by NWS

Home | Current Version | Previous Version | Text Only | Print | Product List | Glossary On
Versions: 1 2 3 4 5 6 7 8 9 10 11 12 13
000
FTUS44 KEPZ 222300 RRA
TAFLRU
TAF
KLRU 222344Z 2300/2324 09018G25KT P6SM SCT080 BKN120 OVC180
      TEMPO 2300/2304 VRB25G40KT 2SM TSRA BLDU BKN060CB OVC120
     FM230600 11010KT P6SM SCT080 BKN150
     FM231200 09012KT P6SM SCT150 SCT250
     FM231800 12010KT P6SM FEW080 SCT150=

USA.gov is the U.S. government's official web portal to all federal, state and local government web resources and services.